sensor_id;sensor_type;location;lat;lon;timestamp;temperature;humidity
68139;DHT22;54940;50.842;4.410;2022-12-18T00:01:46;-1.40;99.90
68139;DHT22;54940;50.842;4.410;2022-12-18T00:04:21;-1.40;99.90
68139;DHT22;54940;50.842;4.410;2022-12-18T00:06:47;-1.40;99.90
68139;DHT22;54940;50.842;4.410;2022-12-18T00:09:12;-1.50;99.90
68139;DHT22;54940;50.842;4.410;2022-12-18T00:11:38;-1.40;99.90
68139;DHT22;54940;50.842;4.410;2022-12-18T00:14:03;-1.50;99.90
68139;DHT22;54940;50.842;4.410;2022-12-18T00:16:29;-1.50;99.90
68139;DHT22;54940;50.842;4.410;2022-12-18T00:18:57;-1.50;99.90
68139;DHT22;54940;50.842;4.410;2022-12-18T00:21:23;-1.50;99.90
68139;DHT22;54940;50.842;4.410;2022-12-18T00:23:50;-1.60;99.90
68139;DHT22;54940;50.842;4.410;2022-12-18T00:26:17;-1.60;99.90
68139;DHT22;54940;50.842;4.410;2022-12-18T00:28:44;-1.60;99.90
68139;DHT22;54940;50.842;4.410;2022-12-18T00:31:11;-1.60;99.90
68139;DHT22;54940;50.842;4.410;2022-12-18T00:33:37;-1.60;99.90
68139;DHT22;54940;50.842;4.410;2022-12-18T00:36:06;-1.60;99.90
68139;DHT22;54940;50.842;4.410;2022-12-18T00:38:33;-1.60;99.90
68139;DHT22;54940;50.842;4.410;2022-12-18T00:40:58;-1.60;99.90
68139;DHT22;54940;50.842;4.410;2022-12-18T00:43:24;-1.60;99.90
68139;DHT22;54940;50.842;4.410;2022-12-18T00:45:49;-1.60;99.90
68139;DHT22;54940;50.842;4.410;2022-12-18T00:48:15;-1.60;99.90
68139;DHT22;54940;50.842;4.410;2022-12-18T00:50:41;-1.60;99.90
68139;DHT22;54940;50.842;4.410;2022-12-18T00:53:06;-1.70;99.90
68139;DHT22;54940;50.842;4.410;2022-12-18T00:55:32;-1.70;99.90
68139;DHT22;54940;50.842;4.410;2022-12-18T00:57:57;-1.70;99.90
68139;DHT22;54940;50.842;4.410;2022-12-18T01:00:23;-1.70;99.90
68139;DHT22;54940;50.842;4.410;2022-12-18T01:02:48;-1.80;99.90
68139;DHT22;54940;50.842;4.410;2022-12-18T01:05:15;-1.80;99.90
68139;DHT22;54940;50.842;4.410;2022-12-18T01:07:40;-1.80;99.90
68139;DHT22;54940;50.842;4.410;2022-12-18T01:10:07;-1.80;99.90
68139;DHT22;54940;50.842;4.410;2022-12-18T01:12:33;-1.90;99.90
68139;DHT22;54940;50.842;4.410;2022-12-18T01:14:59;-1.90;99.90
68139;DHT22;54940;50.842;4.410;2022-12-18T01:17:24;-1.90;99.90
68139;DHT22;54940;50.842;4.410;2022-12-18T01:19:50;-1.90;99.90
68139;DHT22;54940;50.842;4.410;2022-12-18T01:22:15;-1.90;99.90
68139;DHT22;54940;50.842;4.410;2022-12-18T01:24:41;-1.90;99.90
68139;DHT22;54940;50.842;4.410;2022-12-18T01:27:06;-1.90;99.90
68139;DHT22;54940;50.842;4.410;2022-12-18T01:29:32;-1.90;99.90
68139;DHT22;54940;50.842;4.410;2022-12-18T01:31:57;-1.90;99.90
68139;DHT22;54940;50.842;4.410;2022-12-18T01:34:23;-1.90;99.90
68139;DHT22;54940;50.842;4.410;2022-12-18T01:36:49;-1.90;99.90
68139;DHT22;54940;50.842;4.410;2022-12-18T01:39:17;-1.90;99.90
68139;DHT22;54940;50.842;4.410;2022-12-18T01:41:43;-1.90;99.90
68139;DHT22;54940;50.842;4.410;2022-12-18T01:47:15;-2.00;99.90
68139;DHT22;54940;50.842;4.410;2022-12-18T01:49:43;-1.90;99.90
68139;DHT22;54940;50.842;4.410;2022-12-18T01:52:09;-2.00;99.90
68139;DHT22;54940;50.842;4.410;2022-12-18T01:54:34;-1.90;99.90
68139;DHT22;54940;50.842;4.410;2022-12-18T01:57:00;-1.90;99.90
68139;DHT22;54940;50.842;4.410;2022-12-18T01:59:26;-1.90;99.90
68139;DHT22;54940;50.842;4.410;2022-12-18T02:01:53;-1.90;99.90
68139;DHT22;54940;50.842;4.410;2022-12-18T02:04:22;-2.00;99.90
68139;DHT22;54940;50.842;4.410;2022-12-18T02:06:59;-2.00;99.90
68139;DHT22;54940;50.842;4.410;2022-12-18T02:09:31;-1.90;99.90
68139;DHT22;54940;50.842;4.410;2022-12-18T02:14:41;-1.90;99.90
68139;DHT22;54940;50.842;4.410;2022-12-18T02:17:14;-2.00;99.90
68139;DHT22;54940;50.842;4.410;2022-12-18T02:25:13;-2.00;99.90
68139;DHT22;54940;50.842;4.410;2022-12-18T02:27:41;-2.00;99.90
68139;DHT22;54940;50.842;4.410;2022-12-18T02:30:09;-2.10;99.90
68139;DHT22;54940;50.842;4.410;2022-12-18T02:32:37;-2.10;99.90
68139;DHT22;54940;50.842;4.410;2022-12-18T02:35:04;-2.00;99.90
68139;DHT22;54940;50.842;4.410;2022-12-18T02:37:31;-2.00;99.90
68139;DHT22;54940;50.842;4.410;2022-12-18T02:39:57;-2.10;99.90
68139;DHT22;54940;50.842;4.410;2022-12-18T02:42:24;-2.10;99.90
68139;DHT22;54940;50.842;4.410;2022-12-18T02:44:50;-2.10;99.90
68139;DHT22;54940;50.842;4.410;2022-12-18T02:47:17;-2.10;99.90
68139;DHT22;54940;50.842;4.410;2022-12-18T02:52:30;-2.10;99.90
68139;DHT22;54940;50.842;4.410;2022-12-18T03:00:04;-2.10;99.90
68139;DHT22;54940;50.842;4.410;2022-12-18T03:05:12;-2.10;99.90
68139;DHT22;54940;50.842;4.410;2022-12-18T03:07:40;-2.10;99.90
68139;DHT22;54940;50.842;4.410;2022-12-18T03:10:07;-2.10;99.90
68139;DHT22;54940;50.842;4.410;2022-12-18T03:12:38;-2.10;99.90
68139;DHT22;54940;50.842;4.410;2022-12-18T03:15:16;-2.20;99.90
68139;DHT22;54940;50.842;4.410;2022-12-18T03:17:45;-2.20;99.90
68139;DHT22;54940;50.842;4.410;2022-12-18T03:20:12;-2.20;99.90
68139;DHT22;54940;50.842;4.410;2022-12-18T03:22:38;-2.20;99.90
68139;DHT22;54940;50.842;4.410;2022-12-18T03:25:05;-2.30;99.90
68139;DHT22;54940;50.842;4.410;2022-12-18T03:27:31;-2.30;99.90
68139;DHT22;54940;50.842;4.410;2022-12-18T03:30:06;-2.30;99.90
68139;DHT22;54940;50.842;4.410;2022-12-18T03:32:35;-2.30;99.90
68139;DHT22;54940;50.842;4.410;2022-12-18T03:35:02;-2.30;99.90
68139;DHT22;54940;50.842;4.410;2022-12-18T03:37:29;-2.40;99.90
68139;DHT22;54940;50.842;4.410;2022-12-18T03:39:55;-2.30;99.90
68139;DHT22;54940;50.842;4.410;2022-12-18T03:43:07;-2.30;99.90
68139;DHT22;54940;50.842;4.410;2022-12-18T03:45:11;-2.40;99.90
68139;DHT22;54940;50.842;4.410;2022-12-18T03:47:58;-2.30;99.90
68139;DHT22;54940;50.842;4.410;2022-12-18T03:50:36;-2.40;99.90
68139;DHT22;54940;50.842;4.410;2022-12-18T03:55:46;-2.40;99.90
68139;DHT22;54940;50.842;4.410;2022-12-18T03:58:13;-2.40;99.90
68139;DHT22;54940;50.842;4.410;2022-12-18T04:00:41;-2.50;99.90
68139;DHT22;54940;50.842;4.410;2022-12-18T04:03:06;-2.50;99.90
68139;DHT22;54940;50.842;4.410;2022-12-18T04:05:33;-2.50;99.90
68139;DHT22;54940;50.842;4.410;2022-12-18T04:08:00;-2.50;99.90
68139;DHT22;54940;50.842;4.410;2022-12-18T04:10:26;-2.40;99.90
68139;DHT22;54940;50.842;4.410;2022-12-18T04:12:55;-2.50;99.90
68139;DHT22;54940;50.842;4.410;2022-12-18T04:15:20;-2.50;99.90
68139;DHT22;54940;50.842;4.410;2022-12-18T04:17:47;-2.50;99.90
68139;DHT22;54940;50.842;4.410;2022-12-18T04:20:13;-2.50;99.90
68139;DHT22;54940;50.842;4.410;2022-12-18T04:22:38;-2.50;99.90
68139;DHT22;54940;50.842;4.410;2022-12-18T04:25:04;-2.50;99.90
68139;DHT22;54940;50.842;4.410;2022-12-18T04:27:30;-2.60;99.90
68139;DHT22;54940;50.842;4.410;2022-12-18T04:29:55;-2.60;99.90
68139;DHT22;54940;50.842;4.410;2022-12-18T04:32:21;-2.60;99.90
68139;DHT22;54940;50.842;4.410;2022-12-18T04:34:46;-2.60;99.90
68139;DHT22;54940;50.842;4.410;2022-12-18T04:37:12;-2.60;99.90
68139;DHT22;54940;50.842;4.410;2022-12-18T04:39:38;-2.60;99.90
68139;DHT22;54940;50.842;4.410;2022-12-18T04:42:03;-2.50;99.90
68139;DHT22;54940;50.842;4.410;2022-12-18T04:44:29;-2.60;99.90
68139;DHT22;54940;50.842;4.410;2022-12-18T04:46:54;-2.60;99.90
68139;DHT22;54940;50.842;4.410;2022-12-18T04:49:21;-2.50;99.90
68139;DHT22;54940;50.842;4.410;2022-12-18T04:51:46;-2.60;99.90
68139;DHT22;54940;50.842;4.410;2022-12-18T04:54:12;-2.60;99.90
68139;DHT22;54940;50.842;4.410;2022-12-18T04:56:37;-2.60;99.90
68139;DHT22;54940;50.842;4.410;2022-12-18T04:59:03;-2.60;99.90
68139;DHT22;54940;50.842;4.410;2022-12-18T05:01:28;-2.60;99.90
68139;DHT22;54940;50.842;4.410;2022-12-18T05:03:54;-2.60;99.90
68139;DHT22;54940;50.842;4.410;2022-12-18T05:06:19;-2.60;99.90
68139;DHT22;54940;50.842;4.410;2022-12-18T05:08:45;-2.70;99.90
68139;DHT22;54940;50.842;4.410;2022-12-18T05:11:12;-2.70;99.90
68139;DHT22;54940;50.842;4.410;2022-12-18T05:13:40;-2.70;99.90
68139;DHT22;54940;50.842;4.410;2022-12-18T05:16:05;-2.70;99.90
68139;DHT22;54940;50.842;4.410;2022-12-18T05:18:31;-2.70;99.90
68139;DHT22;54940;50.842;4.410;2022-12-18T05:20:57;-2.70;99.90
68139;DHT22;54940;50.842;4.410;2022-12-18T05:23:23;-2.70;99.90
68139;DHT22;54940;50.842;4.410;2022-12-18T05:28:17;-2.70;99.90
68139;DHT22;54940;50.842;4.410;2022-12-18T05:30:46;-2.80;99.90
68139;DHT22;54940;50.842;4.410;2022-12-18T05:33:12;-2.90;99.90
68139;DHT22;54940;50.842;4.410;2022-12-18T05:35:38;-2.90;99.90
68139;DHT22;54940;50.842;4.410;2022-12-18T05:38:03;-2.90;99.90
68139;DHT22;54940;50.842;4.410;2022-12-18T05:40:29;-3.00;99.90
68139;DHT22;54940;50.842;4.410;2022-12-18T05:42:54;-3.10;99.90
68139;DHT22;54940;50.842;4.410;2022-12-18T05:45:20;-3.00;99.90
68139;DHT22;54940;50.842;4.410;2022-12-18T05:47:45;-3.00;99.90
68139;DHT22;54940;50.842;4.410;2022-12-18T05:50:11;-2.90;99.90
68139;DHT22;54940;50.842;4.410;2022-12-18T05:52:36;-2.90;99.90
68139;DHT22;54940;50.842;4.410;2022-12-18T05:55:02;-2.90;99.90
68139;DHT22;54940;50.842;4.410;2022-12-18T05:57:28;-2.90;99.90
68139;DHT22;54940;50.842;4.410;2022-12-18T05:59:53;-2.90;99.90
68139;DHT22;54940;50.842;4.410;2022-12-18T06:02:19;-2.80;99.90
68139;DHT22;54940;50.842;4.410;2022-12-18T06:04:46;-2.90;99.90
68139;DHT22;54940;50.842;4.410;2022-12-18T06:07:12;-2.80;99.90
68139;DHT22;54940;50.842;4.410;2022-12-18T06:09:38;-2.80;99.90
68139;DHT22;54940;50.842;4.410;2022-12-18T06:12:03;-2.80;99.90
68139;DHT22;54940;50.842;4.410;2022-12-18T06:14:29;-2.90;99.90
68139;DHT22;54940;50.842;4.410;2022-12-18T06:16:54;-2.80;99.90
68139;DHT22;54940;50.842;4.410;2022-12-18T06:19:20;-2.80;99.90
68139;DHT22;54940;50.842;4.410;2022-12-18T06:21:45;-2.80;99.90
68139;DHT22;54940;50.842;4.410;2022-12-18T06:24:11;-2.80;99.90
68139;DHT22;54940;50.842;4.410;2022-12-18T06:26:37;-2.80;99.90
68139;DHT22;54940;50.842;4.410;2022-12-18T06:29:04;-2.80;99.90
68139;DHT22;54940;50.842;4.410;2022-12-18T06:31:29;-2.80;99.90
68139;DHT22;54940;50.842;4.410;2022-12-18T06:33:55;-2.80;99.90
68139;DHT22;54940;50.842;4.410;2022-12-18T06:36:20;-2.80;99.90
68139;DHT22;54940;50.842;4.410;2022-12-18T06:38:46;-2.80;99.90
68139;DHT22;54940;50.842;4.410;2022-12-18T06:41:13;-2.80;99.90
68139;DHT22;54940;50.842;4.410;2022-12-18T06:43:39;-2.80;99.90
68139;DHT22;54940;50.842;4.410;2022-12-18T06:46:04;-2.80;99.90
68139;DHT22;54940;50.842;4.410;2022-12-18T06:48:30;-2.90;99.90
68139;DHT22;54940;50.842;4.410;2022-12-18T06:50:56;-3.00;99.90
68139;DHT22;54940;50.842;4.410;2022-12-18T06:53:22;-3.00;99.90
68139;DHT22;54940;50.842;4.410;2022-12-18T06:55:48;-3.10;99.90
68139;DHT22;54940;50.842;4.410;2022-12-18T06:58:13;-3.00;99.90
68139;DHT22;54940;50.842;4.410;2022-12-18T07:00:39;-3.00;99.90
68139;DHT22;54940;50.842;4.410;2022-12-18T07:03:04;-2.90;99.90
68139;DHT22;54940;50.842;4.410;2022-12-18T07:05:30;-2.90;99.90
68139;DHT22;54940;50.842;4.410;2022-12-18T07:07:55;-2.90;99.90
68139;DHT22;54940;50.842;4.410;2022-12-18T07:10:21;-2.90;99.90
68139;DHT22;54940;50.842;4.410;2022-12-18T07:12:46;-2.90;99.90
68139;DHT22;54940;50.842;4.410;2022-12-18T07:15:12;-2.90;99.90
68139;DHT22;54940;50.842;4.410;2022-12-18T07:17:37;-3.00;99.90
68139;DHT22;54940;50.842;4.410;2022-12-18T07:20:03;-3.00;99.90
68139;DHT22;54940;50.842;4.410;2022-12-18T07:22:29;-3.00;99.90
68139;DHT22;54940;50.842;4.410;2022-12-18T07:24:54;-3.00;99.90
68139;DHT22;54940;50.842;4.410;2022-12-18T07:27:20;-3.00;99.90
68139;DHT22;54940;50.842;4.410;2022-12-18T07:29:46;-3.00;99.90
68139;DHT22;54940;50.842;4.410;2022-12-18T07:32:11;-3.00;99.90
68139;DHT22;54940;50.842;4.410;2022-12-18T07:34:37;-3.00;99.90
68139;DHT22;54940;50.842;4.410;2022-12-18T07:37:02;-3.00;99.90
68139;DHT22;54940;50.842;4.410;2022-12-18T07:39:28;-3.00;99.90
68139;DHT22;54940;50.842;4.410;2022-12-18T07:41:53;-3.00;99.90
68139;DHT22;54940;50.842;4.410;2022-12-18T07:44:37;-3.10;99.90
68139;DHT22;54940;50.842;4.410;2022-12-18T07:47:04;-2.90;99.90
68139;DHT22;54940;50.842;4.410;2022-12-18T07:49:29;-2.90;99.90
68139;DHT22;54940;50.842;4.410;2022-12-18T07:51:55;-2.90;99.90
68139;DHT22;54940;50.842;4.410;2022-12-18T07:54:24;-2.90;99.90
68139;DHT22;54940;50.842;4.410;2022-12-18T07:56:50;-3.00;99.90
68139;DHT22;54940;50.842;4.410;2022-12-18T07:59:16;-2.90;99.90
68139;DHT22;54940;50.842;4.410;2022-12-18T08:01:42;-2.90;99.90
68139;DHT22;54940;50.842;4.410;2022-12-18T08:04:07;-2.90;99.90
68139;DHT22;54940;50.842;4.410;2022-12-18T08:06:33;-2.90;99.90
68139;DHT22;54940;50.842;4.410;2022-12-18T08:08:58;-2.90;99.90
68139;DHT22;54940;50.842;4.410;2022-12-18T08:11:24;-2.90;99.90
68139;DHT22;54940;50.842;4.410;2022-12-18T08:13:51;-2.90;99.90
68139;DHT22;54940;50.842;4.410;2022-12-18T08:16:17;-2.80;99.90
68139;DHT22;54940;50.842;4.410;2022-12-18T08:18:42;-2.80;99.90
68139;DHT22;54940;50.842;4.410;2022-12-18T08:21:12;-2.80;99.90
68139;DHT22;54940;50.842;4.410;2022-12-18T08:23:38;-2.80;99.90
68139;DHT22;54940;50.842;4.410;2022-12-18T08:26:04;-2.80;99.90
68139;DHT22;54940;50.842;4.410;2022-12-18T08:28:30;-2.80;99.90
68139;DHT22;54940;50.842;4.410;2022-12-18T08:30:55;-2.80;99.90
68139;DHT22;54940;50.842;4.410;2022-12-18T08:33:21;-2.80;99.90
68139;DHT22;54940;50.842;4.410;2022-12-18T08:35:46;-2.70;99.90
68139;DHT22;54940;50.842;4.410;2022-12-18T08:38:12;-2.60;99.90
68139;DHT22;54940;50.842;4.410;2022-12-18T08:40:38;-2.60;99.90
68139;DHT22;54940;50.842;4.410;2022-12-18T08:43:03;-2.60;99.90
68139;DHT22;54940;50.842;4.410;2022-12-18T08:45:47;-2.50;99.90
68139;DHT22;54940;50.842;4.410;2022-12-18T08:48:13;-2.50;99.90
68139;DHT22;54940;50.842;4.410;2022-12-18T08:50:39;-2.50;99.90
68139;DHT22;54940;50.842;4.410;2022-12-18T08:53:05;-2.40;99.90
68139;DHT22;54940;50.842;4.410;2022-12-18T08:55:30;-2.50;99.90
68139;DHT22;54940;50.842;4.410;2022-12-18T08:57:56;-2.40;99.90
68139;DHT22;54940;50.842;4.410;2022-12-18T09:00:21;-2.40;99.90
68139;DHT22;54940;50.842;4.410;2022-12-18T09:02:47;-2.40;99.90
68139;DHT22;54940;50.842;4.410;2022-12-18T09:05:12;-2.40;99.90
68139;DHT22;54940;50.842;4.410;2022-12-18T09:07:38;-2.30;99.90
68139;DHT22;54940;50.842;4.410;2022-12-18T09:10:04;-2.20;99.90
68139;DHT22;54940;50.842;4.410;2022-12-18T09:12:29;-2.20;99.90
68139;DHT22;54940;50.842;4.410;2022-12-18T09:14:55;-2.10;99.90
68139;DHT22;54940;50.842;4.410;2022-12-18T09:17:21;-2.10;99.90
68139;DHT22;54940;50.842;4.410;2022-12-18T09:19:47;-2.00;99.90
68139;DHT22;54940;50.842;4.410;2022-12-18T09:22:12;-2.00;99.90
68139;DHT22;54940;50.842;4.410;2022-12-18T09:24:38;-1.90;99.90
68139;DHT22;54940;50.842;4.410;2022-12-18T09:27:04;-1.80;99.90
68139;DHT22;54940;50.842;4.410;2022-12-18T09:29:29;-1.80;99.90
68139;DHT22;54940;50.842;4.410;2022-12-18T09:31:55;-1.80;99.90
68139;DHT22;54940;50.842;4.410;2022-12-18T09:34:20;-1.80;99.90
68139;DHT22;54940;50.842;4.410;2022-12-18T09:36:47;-1.80;99.90
68139;DHT22;54940;50.842;4.410;2022-12-18T09:39:12;-1.80;99.90
68139;DHT22;54940;50.842;4.410;2022-12-18T09:46:36;-1.60;99.90
68139;DHT22;54940;50.842;4.410;2022-12-18T09:49:05;-1.60;99.90
68139;DHT22;54940;50.842;4.410;2022-12-18T09:51:36;-1.60;99.90
68139;DHT22;54940;50.842;4.410;2022-12-18T09:54:04;-1.50;99.90
68139;DHT22;54940;50.842;4.410;2022-12-18T09:56:33;-1.50;99.90
68139;DHT22;54940;50.842;4.410;2022-12-18T09:59:00;-1.40;99.90
68139;DHT22;54940;50.842;4.410;2022-12-18T10:01:27;-1.50;99.90
68139;DHT22;54940;50.842;4.410;2022-12-18T10:03:52;-1.40;99.90
68139;DHT22;54940;50.842;4.410;2022-12-18T10:14:08;-1.40;99.90
68139;DHT22;54940;50.842;4.410;2022-12-18T10:16:50;-1.20;99.90
68139;DHT22;54940;50.842;4.410;2022-12-18T10:24:30;-1.20;99.90
68139;DHT22;54940;50.842;4.410;2022-12-18T10:29:36;-1.00;99.90
68139;DHT22;54940;50.842;4.410;2022-12-18T10:32:02;-1.00;99.90
68139;DHT22;54940;50.842;4.410;2022-12-18T10:34:28;-1.00;99.90
68139;DHT22;54940;50.842;4.410;2022-12-18T10:36:53;-0.90;99.90
68139;DHT22;54940;50.842;4.410;2022-12-18T10:39:20;-0.90;99.90
68139;DHT22;54940;50.842;4.410;2022-12-18T10:41:47;-0.90;99.90
68139;DHT22;54940;50.842;4.410;2022-12-18T10:44:23;-0.80;99.90
68139;DHT22;54940;50.842;4.410;2022-12-18T10:46:55;-0.80;99.90
68139;DHT22;54940;50.842;4.410;2022-12-18T10:49:33;-0.60;99.90
68139;DHT22;54940;50.842;4.410;2022-12-18T10:52:04;-0.60;99.90
68139;DHT22;54940;50.842;4.410;2022-12-18T10:54:30;-0.50;99.90
68139;DHT22;54940;50.842;4.410;2022-12-18T10:57:13;-0.50;99.90
68139;DHT22;54940;50.842;4.410;2022-12-18T10:59:49;-0.50;99.90
68139;DHT22;54940;50.842;4.410;2022-12-18T11:02:24;-0.50;99.90
68139;DHT22;54940;50.842;4.410;2022-12-18T11:04:51;-0.50;99.90
68139;DHT22;54940;50.842;4.410;2022-12-18T11:07:17;-0.50;99.90
68139;DHT22;54940;50.842;4.410;2022-12-18T11:09:43;-0.40;99.90
68139;DHT22;54940;50.842;4.410;2022-12-18T11:12:18;-0.30;99.90
68139;DHT22;54940;50.842;4.410;2022-12-18T11:14:48;-0.20;99.90
68139;DHT22;54940;50.842;4.410;2022-12-18T11:17:28;-0.20;99.90
68139;DHT22;54940;50.842;4.410;2022-12-18T11:19:58;-0.10;99.90
68139;DHT22;54940;50.842;4.410;2022-12-18T11:24:59;-0.10;99.90
68139;DHT22;54940;50.842;4.410;2022-12-18T11:27:26;-0.10;99.90
68139;DHT22;54940;50.842;4.410;2022-12-18T11:29:52;0.00;99.90
68139;DHT22;54940;50.842;4.410;2022-12-18T11:34:48;0.00;99.90
68139;DHT22;54940;50.842;4.410;2022-12-18T11:37:15;0.10;99.90
68139;DHT22;54940;50.842;4.410;2022-12-18T11:39:55;0.10;99.90
68139;DHT22;54940;50.842;4.410;2022-12-18T11:42:30;0.20;99.90
68139;DHT22;54940;50.842;4.410;2022-12-18T11:50:50;0.30;99.90
68139;DHT22;54940;50.842;4.410;2022-12-18T11:53:16;0.30;99.90
68139;DHT22;54940;50.842;4.410;2022-12-18T11:55:49;0.40;99.90
68139;DHT22;54940;50.842;4.410;2022-12-18T12:03:47;0.50;99.90
68139;DHT22;54940;50.842;4.410;2022-12-18T12:08:52;0.40;99.90
68139;DHT22;54940;50.842;4.410;2022-12-18T12:19:05;0.60;99.90
68139;DHT22;54940;50.842;4.410;2022-12-18T12:26:38;0.70;99.90
68139;DHT22;54940;50.842;4.410;2022-12-18T12:34:09;0.80;99.90
68139;DHT22;54940;50.842;4.410;2022-12-18T12:39:08;0.80;99.90
68139;DHT22;54940;50.842;4.410;2022-12-18T12:41:36;0.80;99.90
68139;DHT22;54940;50.842;4.410;2022-12-18T12:44:25;0.90;99.90
68139;DHT22;54940;50.842;4.410;2022-12-18T12:46:52;0.90;99.90
68139;DHT22;54940;50.842;4.410;2022-12-18T12:49:18;1.00;99.90
68139;DHT22;54940;50.842;4.410;2022-12-18T12:51:45;0.90;99.90
68139;DHT22;54940;50.842;4.410;2022-12-18T12:54:14;0.90;99.90
68139;DHT22;54940;50.842;4.410;2022-12-18T12:59:24;0.90;99.90
68139;DHT22;54940;50.842;4.410;2022-12-18T13:07:10;0.90;99.90
68139;DHT22;54940;50.842;4.410;2022-12-18T13:10:11;1.00;99.90
68139;DHT22;54940;50.842;4.410;2022-12-18T13:12:24;1.00;99.90
68139;DHT22;54940;50.842;4.410;2022-12-18T13:26:30;1.10;99.90
68139;DHT22;54940;50.842;4.410;2022-12-18T13:31:08;1.00;99.90
68139;DHT22;54940;50.842;4.410;2022-12-18T13:33:41;0.90;99.90
68139;DHT22;54940;50.842;4.410;2022-12-18T13:36:14;0.90;99.90
68139;DHT22;54940;50.842;4.410;2022-12-18T13:38:41;0.90;99.90
68139;DHT22;54940;50.842;4.410;2022-12-18T13:43:33;1.00;99.90
68139;DHT22;54940;50.842;4.410;2022-12-18T13:46:17;1.00;99.90
68139;DHT22;54940;50.842;4.410;2022-12-18T13:48:51;1.00;99.90
68139;DHT22;54940;50.842;4.410;2022-12-18T13:51:17;1.00;99.90
68139;DHT22;54940;50.842;4.410;2022-12-18T13:53:47;0.90;99.90
68139;DHT22;54940;50.842;4.410;2022-12-18T13:56:42;0.90;99.90
68139;DHT22;54940;50.842;4.410;2022-12-18T13:59:13;0.90;99.90
68139;DHT22;54940;50.842;4.410;2022-12-18T14:04:12;1.00;99.90
68139;DHT22;54940;50.842;4.410;2022-12-18T14:06:41;0.90;99.90
68139;DHT22;54940;50.842;4.410;2022-12-18T14:09:10;0.90;99.90
68139;DHT22;54940;50.842;4.410;2022-12-18T14:11:38;0.80;99.90
68139;DHT22;54940;50.842;4.410;2022-12-18T14:14:03;0.90;99.90
68139;DHT22;54940;50.842;4.410;2022-12-18T14:16:32;0.90;99.90
68139;DHT22;54940;50.842;4.410;2022-12-18T14:18:59;0.90;99.90
68139;DHT22;54940;50.842;4.410;2022-12-18T14:21:26;0.90;99.90
68139;DHT22;54940;50.842;4.410;2022-12-18T14:26:36;0.90;99.90
68139;DHT22;54940;50.842;4.410;2022-12-18T14:29:17;0.90;99.90
68139;DHT22;54940;50.842;4.410;2022-12-18T14:31:43;0.90;99.90
68139;DHT22;54940;50.842;4.410;2022-12-18T14:34:14;0.90;99.90
68139;DHT22;54940;50.842;4.410;2022-12-18T14:36:40;1.10;99.90
68139;DHT22;54940;50.842;4.410;2022-12-18T14:39:13;1.10;99.90
68139;DHT22;54940;50.842;4.410;2022-12-18T14:41:42;1.20;99.90
68139;DHT22;54940;50.842;4.410;2022-12-18T14:44:07;1.10;99.90
68139;DHT22;54940;50.842;4.410;2022-12-18T14:46:36;1.10;99.90
68139;DHT22;54940;50.842;4.410;2022-12-18T14:51:48;1.20;99.90
68139;DHT22;54940;50.842;4.410;2022-12-18T14:54:16;1.10;99.90
68139;DHT22;54940;50.842;4.410;2022-12-18T14:56:46;1.00;99.90
68139;DHT22;54940;50.842;4.410;2022-12-18T14:59:22;1.00;99.90
68139;DHT22;54940;50.842;4.410;2022-12-18T15:04:30;1.10;99.90
68139;DHT22;54940;50.842;4.410;2022-12-18T15:07:04;1.00;99.90
68139;DHT22;54940;50.842;4.410;2022-12-18T15:09:30;1.00;99.90
68139;DHT22;54940;50.842;4.410;2022-12-18T15:11:56;1.00;99.90
68139;DHT22;54940;50.842;4.410;2022-12-18T15:16:54;1.00;99.90
68139;DHT22;54940;50.842;4.410;2022-12-18T15:19:21;1.00;99.90
68139;DHT22;54940;50.842;4.410;2022-12-18T15:21:47;1.10;99.90
68139;DHT22;54940;50.842;4.410;2022-12-18T15:24:16;1.10;99.90
68139;DHT22;54940;50.842;4.410;2022-12-18T15:26:43;1.00;99.90
68139;DHT22;54940;50.842;4.410;2022-12-18T15:29:17;1.00;99.90
68139;DHT22;54940;50.842;4.410;2022-12-18T15:31:57;1.00;99.90
68139;DHT22;54940;50.842;4.410;2022-12-18T15:34:23;1.00;99.90
68139;DHT22;54940;50.842;4.410;2022-12-18T15:36:49;1.00;99.90
68139;DHT22;54940;50.842;4.410;2022-12-18T15:39:15;1.00;99.90
68139;DHT22;54940;50.842;4.410;2022-12-18T15:41:41;1.00;99.90
68139;DHT22;54940;50.842;4.410;2022-12-18T15:44:26;1.10;99.90
68139;DHT22;54940;50.842;4.410;2022-12-18T15:46:52;1.10;99.90
68139;DHT22;54940;50.842;4.410;2022-12-18T15:49:17;1.00;99.90
68139;DHT22;54940;50.842;4.410;2022-12-18T15:51:43;1.20;99.90
68139;DHT22;54940;50.842;4.410;2022-12-18T15:54:11;1.10;99.90
68139;DHT22;54940;50.842;4.410;2022-12-18T15:56:38;1.10;99.90
68139;DHT22;54940;50.842;4.410;2022-12-18T15:59:22;1.10;99.90
68139;DHT22;54940;50.842;4.410;2022-12-18T16:01:48;1.00;99.90
68139;DHT22;54940;50.842;4.410;2022-12-18T16:04:15;1.00;99.90
68139;DHT22;54940;50.842;4.410;2022-12-18T16:06:41;0.90;99.90
68139;DHT22;54940;50.842;4.410;2022-12-18T16:09:07;0.90;99.90
68139;DHT22;54940;50.842;4.410;2022-12-18T16:11:33;1.00;99.90
68139;DHT22;54940;50.842;4.410;2022-12-18T16:14:25;1.00;99.90
68139;DHT22;54940;50.842;4.410;2022-12-18T16:16:54;1.00;99.90
68139;DHT22;54940;50.842;4.410;2022-12-18T16:19:20;1.00;99.90
68139;DHT22;54940;50.842;4.410;2022-12-18T16:21:46;1.00;99.90
68139;DHT22;54940;50.842;4.410;2022-12-18T16:24:13;1.00;99.90
68139;DHT22;54940;50.842;4.410;2022-12-18T16:26:39;1.00;99.90
68139;DHT22;54940;50.842;4.410;2022-12-18T16:29:07;1.00;99.90
68139;DHT22;54940;50.842;4.410;2022-12-18T16:31:33;1.00;99.90
68139;DHT22;54940;50.842;4.410;2022-12-18T16:34:11;1.10;99.90
68139;DHT22;54940;50.842;4.410;2022-12-18T16:36:37;1.20;99.90
68139;DHT22;54940;50.842;4.410;2022-12-18T16:39:03;1.20;99.90
68139;DHT22;54940;50.842;4.410;2022-12-18T16:41:28;1.20;99.90
68139;DHT22;54940;50.842;4.410;2022-12-18T16:43:57;1.10;99.90
68139;DHT22;54940;50.842;4.410;2022-12-18T16:46:23;1.30;99.90
68139;DHT22;54940;50.842;4.410;2022-12-18T16:48:48;1.20;99.90
68139;DHT22;54940;50.842;4.410;2022-12-18T16:51:14;1.20;99.90
68139;DHT22;54940;50.842;4.410;2022-12-18T16:53:39;1.30;99.90
68139;DHT22;54940;50.842;4.410;2022-12-18T16:56:05;1.30;99.90
68139;DHT22;54940;50.842;4.410;2022-12-18T16:58:31;1.30;99.90
68139;DHT22;54940;50.842;4.410;2022-12-18T17:00:56;1.30;99.90
68139;DHT22;54940;50.842;4.410;2022-12-18T17:03:22;1.40;99.90
68139;DHT22;54940;50.842;4.410;2022-12-18T17:05:47;1.40;99.90
68139;DHT22;54940;50.842;4.410;2022-12-18T17:08:13;1.40;99.90
68139;DHT22;54940;50.842;4.410;2022-12-18T17:10:38;1.40;99.90
68139;DHT22;54940;50.842;4.410;2022-12-18T17:13:04;1.40;99.90
68139;DHT22;54940;50.842;4.410;2022-12-18T17:15:29;1.40;99.90
68139;DHT22;54940;50.842;4.410;2022-12-18T17:17:55;1.40;99.90
68139;DHT22;54940;50.842;4.410;2022-12-18T17:20:20;1.50;99.90
68139;DHT22;54940;50.842;4.410;2022-12-18T17:22:46;1.40;99.90
68139;DHT22;54940;50.842;4.410;2022-12-18T17:25:11;1.30;99.90
68139;DHT22;54940;50.842;4.410;2022-12-18T17:27:37;1.30;99.90
68139;DHT22;54940;50.842;4.410;2022-12-18T17:30:03;1.40;99.90
68139;DHT22;54940;50.842;4.410;2022-12-18T17:32:29;1.40;99.90
68139;DHT22;54940;50.842;4.410;2022-12-18T17:34:54;1.50;99.90
68139;DHT22;54940;50.842;4.410;2022-12-18T17:37:20;1.50;99.90
68139;DHT22;54940;50.842;4.410;2022-12-18T17:39:46;1.50;99.90
68139;DHT22;54940;50.842;4.410;2022-12-18T17:42:11;1.50;99.90